sensor_id;sensor_type;location;lat;lon;timestamp;temperature;humidity
851;DHT22;412;51.400;7.480;2023-04-03T00:00:29;5.70;99.90
851;DHT22;412;51.400;7.480;2023-04-03T00:02:55;5.70;99.90
851;DHT22;412;51.400;7.480;2023-04-03T00:05:21;5.70;99.90
851;DHT22;412;51.400;7.480;2023-04-03T00:07:47;5.60;99.90
851;DHT22;412;51.400;7.480;2023-04-03T00:10:12;5.70;99.90
851;DHT22;412;51.400;7.480;2023-04-03T00:12:39;5.60;99.90
851;DHT22;412;51.400;7.480;2023-04-03T00:15:05;5.50;99.90
851;DHT22;412;51.400;7.480;2023-04-03T00:17:31;5.50;99.90
851;DHT22;412;51.400;7.480;2023-04-03T00:19:57;5.50;99.90
851;DHT22;412;51.400;7.480;2023-04-03T00:22:23;5.50;99.90
851;DHT22;412;51.400;7.480;2023-04-03T00:24:49;5.50;99.90
851;DHT22;412;51.400;7.480;2023-04-03T00:27:14;5.50;99.90
851;DHT22;412;51.400;7.480;2023-04-03T00:29:41;5.30;99.90
851;DHT22;412;51.400;7.480;2023-04-03T00:32:07;5.40;99.90
851;DHT22;412;51.400;7.480;2023-04-03T00:34:32;5.30;99.90
851;DHT22;412;51.400;7.480;2023-04-03T00:36:58;5.30;99.90
851;DHT22;412;51.400;7.480;2023-04-03T00:39:24;5.30;99.90
851;DHT22;412;51.400;7.480;2023-04-03T00:41:49;5.30;99.90
851;DHT22;412;51.400;7.480;2023-04-03T00:46:53;5.30;99.90
851;DHT22;412;51.400;7.480;2023-04-03T00:49:19;5.40;99.90
851;DHT22;412;51.400;7.480;2023-04-03T00:51:45;5.40;99.90
851;DHT22;412;51.400;7.480;2023-04-03T00:54:11;5.30;99.90
851;DHT22;412;51.400;7.480;2023-04-03T00:56:38;5.30;99.90
851;DHT22;412;51.400;7.480;2023-04-03T00:59:08;5.30;99.90
851;DHT22;412;51.400;7.480;2023-04-03T01:01:36;5.40;99.90
851;DHT22;412;51.400;7.480;2023-04-03T01:04:03;5.40;99.90
851;DHT22;412;51.400;7.480;2023-04-03T01:06:32;5.30;99.90
851;DHT22;412;51.400;7.480;2023-04-03T01:08:59;5.20;99.90
851;DHT22;412;51.400;7.480;2023-04-03T01:11:26;5.20;99.90
851;DHT22;412;51.400;7.480;2023-04-03T01:13:53;5.20;99.90
851;DHT22;412;51.400;7.480;2023-04-03T01:16:19;5.20;99.90
851;DHT22;412;51.400;7.480;2023-04-03T01:18:45;5.20;99.90
851;DHT22;412;51.400;7.480;2023-04-03T01:24:25;5.20;99.90
851;DHT22;412;51.400;7.480;2023-04-03T01:26:53;5.20;99.90
851;DHT22;412;51.400;7.480;2023-04-03T01:29:18;5.20;99.90
851;DHT22;412;51.400;7.480;2023-04-03T01:31:53;5.20;99.90
851;DHT22;412;51.400;7.480;2023-04-03T01:34:20;5.20;99.90
851;DHT22;412;51.400;7.480;2023-04-03T01:36:45;5.20;99.90
851;DHT22;412;51.400;7.480;2023-04-03T01:39:11;5.00;99.90
851;DHT22;412;51.400;7.480;2023-04-03T01:41:37;4.90;99.90
851;DHT22;412;51.400;7.480;2023-04-03T01:44:03;5.00;99.90
851;DHT22;412;51.400;7.480;2023-04-03T01:46:29;4.90;99.90
851;DHT22;412;51.400;7.480;2023-04-03T01:48:55;5.00;99.90
851;DHT22;412;51.400;7.480;2023-04-03T01:51:21;4.90;99.90
851;DHT22;412;51.400;7.480;2023-04-03T01:53:47;5.00;99.90
851;DHT22;412;51.400;7.480;2023-04-03T01:56:13;5.00;99.90
851;DHT22;412;51.400;7.480;2023-04-03T01:58:38;5.00;99.90
851;DHT22;412;51.400;7.480;2023-04-03T02:01:05;5.00;99.90
851;DHT22;412;51.400;7.480;2023-04-03T02:03:31;5.00;99.90
851;DHT22;412;51.400;7.480;2023-04-03T02:05:58;5.00;99.90
851;DHT22;412;51.400;7.480;2023-04-03T02:08:24;4.90;99.90
851;DHT22;412;51.400;7.480;2023-04-03T02:10:50;4.90;99.90
851;DHT22;412;51.400;7.480;2023-04-03T02:13:16;4.80;99.90
851;DHT22;412;51.400;7.480;2023-04-03T02:15:42;4.80;99.90
851;DHT22;412;51.400;7.480;2023-04-03T02:18:08;4.90;99.90
851;DHT22;412;51.400;7.480;2023-04-03T02:20:34;4.80;99.90
851;DHT22;412;51.400;7.480;2023-04-03T02:23:01;4.80;99.90
851;DHT22;412;51.400;7.480;2023-04-03T02:25:27;4.90;99.90
851;DHT22;412;51.400;7.480;2023-04-03T02:27:52;4.90;99.90
851;DHT22;412;51.400;7.480;2023-04-03T02:30:18;4.70;99.90
851;DHT22;412;51.400;7.480;2023-04-03T02:32:44;4.70;99.90
851;DHT22;412;51.400;7.480;2023-04-03T02:35:10;4.70;99.90
851;DHT22;412;51.400;7.480;2023-04-03T02:37:36;4.70;99.90
851;DHT22;412;51.400;7.480;2023-04-03T02:40:03;4.70;99.90
851;DHT22;412;51.400;7.480;2023-04-03T02:42:29;4.70;99.90
851;DHT22;412;51.400;7.480;2023-04-03T02:44:54;4.70;99.90
851;DHT22;412;51.400;7.480;2023-04-03T02:47:20;4.70;99.90
851;DHT22;412;51.400;7.480;2023-04-03T02:49:46;4.70;99.90
851;DHT22;412;51.400;7.480;2023-04-03T02:52:13;4.70;99.90
851;DHT22;412;51.400;7.480;2023-04-03T02:54:39;4.70;99.90
851;DHT22;412;51.400;7.480;2023-04-03T02:57:05;4.80;99.90
851;DHT22;412;51.400;7.480;2023-04-03T02:59:33;4.80;99.90
851;DHT22;412;51.400;7.480;2023-04-03T03:01:59;4.90;99.90
851;DHT22;412;51.400;7.480;2023-04-03T03:04:24;4.90;99.90
851;DHT22;412;51.400;7.480;2023-04-03T03:06:50;4.90;99.90
851;DHT22;412;51.400;7.480;2023-04-03T03:09:16;4.90;99.90
851;DHT22;412;51.400;7.480;2023-04-03T03:11:42;4.80;99.90
851;DHT22;412;51.400;7.480;2023-04-03T03:14:07;4.90;99.90
851;DHT22;412;51.400;7.480;2023-04-03T03:16:33;4.80;99.90
851;DHT22;412;51.400;7.480;2023-04-03T03:18:59;4.70;99.90
851;DHT22;412;51.400;7.480;2023-04-03T03:21:25;4.80;99.90
851;DHT22;412;51.400;7.480;2023-04-03T03:23:51;4.70;99.90
851;DHT22;412;51.400;7.480;2023-04-03T03:26:17;4.70;99.90
851;DHT22;412;51.400;7.480;2023-04-03T03:28:42;4.60;99.90
851;DHT22;412;51.400;7.480;2023-04-03T03:31:09;4.50;99.90
851;DHT22;412;51.400;7.480;2023-04-03T03:33:35;4.50;99.90
851;DHT22;412;51.400;7.480;2023-04-03T03:36:01;4.50;99.90
851;DHT22;412;51.400;7.480;2023-04-03T03:38:27;4.60;99.90
851;DHT22;412;51.400;7.480;2023-04-03T03:40:53;4.70;99.90
851;DHT22;412;51.400;7.480;2023-04-03T03:43:19;4.70;99.90
851;DHT22;412;51.400;7.480;2023-04-03T03:45:50;4.80;99.90
851;DHT22;412;51.400;7.480;2023-04-03T03:48:16;4.80;99.90
851;DHT22;412;51.400;7.480;2023-04-03T03:50:42;4.90;99.90
851;DHT22;412;51.400;7.480;2023-04-03T03:53:08;4.90;99.90
851;DHT22;412;51.400;7.480;2023-04-03T03:55:33;5.00;99.90
851;DHT22;412;51.400;7.480;2023-04-03T03:57:59;4.90;99.90
851;DHT22;412;51.400;7.480;2023-04-03T04:00:26;5.00;99.90
851;DHT22;412;51.400;7.480;2023-04-03T04:02:52;4.90;99.90
851;DHT22;412;51.400;7.480;2023-04-03T04:05:18;4.90;99.90
851;DHT22;412;51.400;7.480;2023-04-03T04:07:43;4.70;99.90
851;DHT22;412;51.400;7.480;2023-04-03T04:10:09;4.80;99.90
851;DHT22;412;51.400;7.480;2023-04-03T04:12:35;4.80;99.90
851;DHT22;412;51.400;7.480;2023-04-03T04:15:02;4.60;99.90
851;DHT22;412;51.400;7.480;2023-04-03T04:17:27;4.60;99.90
851;DHT22;412;51.400;7.480;2023-04-03T04:19:53;4.60;99.90
851;DHT22;412;51.400;7.480;2023-04-03T04:22:19;4.60;99.90
851;DHT22;412;51.400;7.480;2023-04-03T04:24:45;4.60;99.90
851;DHT22;412;51.400;7.480;2023-04-03T04:27:10;4.70;99.90
851;DHT22;412;51.400;7.480;2023-04-03T04:29:36;4.90;99.90
851;DHT22;412;51.400;7.480;2023-04-03T04:32:03;4.80;99.90
851;DHT22;412;51.400;7.480;2023-04-03T04:34:29;4.90;99.90
851;DHT22;412;51.400;7.480;2023-04-03T04:36:55;5.00;99.90
851;DHT22;412;51.400;7.480;2023-04-03T04:39:20;4.80;99.90
851;DHT22;412;51.400;7.480;2023-04-03T04:41:46;4.60;99.90
851;DHT22;412;51.400;7.480;2023-04-03T04:44:12;4.60;99.90
851;DHT22;412;51.400;7.480;2023-04-03T04:46:37;4.60;99.90
851;DHT22;412;51.400;7.480;2023-04-03T04:49:03;4.70;99.90
851;DHT22;412;51.400;7.480;2023-04-03T04:51:29;4.60;99.90
851;DHT22;412;51.400;7.480;2023-04-03T04:53:55;4.80;99.90
851;DHT22;412;51.400;7.480;2023-04-03T04:56:21;4.70;99.90
851;DHT22;412;51.400;7.480;2023-04-03T04:58:47;4.80;99.90
851;DHT22;412;51.400;7.480;2023-04-03T05:01:13;4.90;99.90
851;DHT22;412;51.400;7.480;2023-04-03T05:03:39;4.80;99.90
851;DHT22;412;51.400;7.480;2023-04-03T05:06:05;4.80;99.90
851;DHT22;412;51.400;7.480;2023-04-03T05:08:31;4.80;99.90
851;DHT22;412;51.400;7.480;2023-04-03T05:10:59;4.80;99.90
851;DHT22;412;51.400;7.480;2023-04-03T05:13:25;4.80;99.90
851;DHT22;412;51.400;7.480;2023-04-03T05:15:50;4.60;99.90
851;DHT22;412;51.400;7.480;2023-04-03T05:18:16;4.70;99.90
851;DHT22;412;51.400;7.480;2023-04-03T05:20:42;4.80;99.90
851;DHT22;412;51.400;7.480;2023-04-03T05:23:10;4.70;99.90
851;DHT22;412;51.400;7.480;2023-04-03T05:25:38;4.80;99.90
851;DHT22;412;51.400;7.480;2023-04-03T05:28:03;4.90;99.90
851;DHT22;412;51.400;7.480;2023-04-03T05:30:29;4.90;99.90
851;DHT22;412;51.400;7.480;2023-04-03T05:32:55;4.90;99.90
851;DHT22;412;51.400;7.480;2023-04-03T05:35:21;4.90;99.90
851;DHT22;412;51.400;7.480;2023-04-03T05:37:47;4.90;99.90
851;DHT22;412;51.400;7.480;2023-04-03T05:40:12;4.90;99.90
851;DHT22;412;51.400;7.480;2023-04-03T05:42:38;5.00;99.90
851;DHT22;412;51.400;7.480;2023-04-03T05:45:04;5.00;99.90
851;DHT22;412;51.400;7.480;2023-04-03T05:47:30;5.10;99.90
851;DHT22;412;51.400;7.480;2023-04-03T05:49:56;5.10;99.90
851;DHT22;412;51.400;7.480;2023-04-03T05:52:30;5.10;99.90
851;DHT22;412;51.400;7.480;2023-04-03T05:54:57;5.10;99.90
851;DHT22;412;51.400;7.480;2023-04-03T05:57:23;5.10;99.90
851;DHT22;412;51.400;7.480;2023-04-03T05:59:49;5.10;99.90
851;DHT22;412;51.400;7.480;2023-04-03T06:02:20;5.10;99.90
851;DHT22;412;51.400;7.480;2023-04-03T06:04:46;5.20;99.90
851;DHT22;412;51.400;7.480;2023-04-03T06:07:18;5.30;99.90
851;DHT22;412;51.400;7.480;2023-04-03T06:09:46;5.20;99.90
851;DHT22;412;51.400;7.480;2023-04-03T06:12:12;5.40;99.90
851;DHT22;412;51.400;7.480;2023-04-03T06:14:38;5.20;99.90
851;DHT22;412;51.400;7.480;2023-04-03T06:17:04;5.10;99.90
851;DHT22;412;51.400;7.480;2023-04-03T06:19:30;5.10;99.90
851;DHT22;412;51.400;7.480;2023-04-03T06:21:56;5.00;99.90
851;DHT22;412;51.400;7.480;2023-04-03T06:24:22;5.10;99.90
851;DHT22;412;51.400;7.480;2023-04-03T06:26:49;5.10;99.90
851;DHT22;412;51.400;7.480;2023-04-03T06:29:17;5.10;99.90
851;DHT22;412;51.400;7.480;2023-04-03T06:31:43;5.20;99.90
851;DHT22;412;51.400;7.480;2023-04-03T06:34:09;5.30;99.90
851;DHT22;412;51.400;7.480;2023-04-03T06:36:36;5.20;99.90
851;DHT22;412;51.400;7.480;2023-04-03T06:39:02;5.30;99.90
851;DHT22;412;51.400;7.480;2023-04-03T06:41:28;5.30;99.90
851;DHT22;412;51.400;7.480;2023-04-03T06:43:54;5.30;99.90
851;DHT22;412;51.400;7.480;2023-04-03T06:46:23;5.40;99.90
851;DHT22;412;51.400;7.480;2023-04-03T06:48:50;5.30;99.90
851;DHT22;412;51.400;7.480;2023-04-03T06:51:25;5.30;99.90
851;DHT22;412;51.400;7.480;2023-04-03T06:53:55;5.40;99.90
851;DHT22;412;51.400;7.480;2023-04-03T06:56:21;5.40;99.90
851;DHT22;412;51.400;7.480;2023-04-03T06:58:48;5.40;99.90
851;DHT22;412;51.400;7.480;2023-04-03T07:01:16;5.40;99.90
851;DHT22;412;51.400;7.480;2023-04-03T07:03:45;5.40;99.90
851;DHT22;412;51.400;7.480;2023-04-03T07:06:12;5.40;99.90
851;DHT22;412;51.400;7.480;2023-04-03T07:08:39;5.40;99.90
851;DHT22;412;51.400;7.480;2023-04-03T07:11:06;5.40;99.90
851;DHT22;412;51.400;7.480;2023-04-03T07:13:32;5.50;99.90
851;DHT22;412;51.400;7.480;2023-04-03T07:15:58;5.60;99.90
851;DHT22;412;51.400;7.480;2023-04-03T07:18:24;5.80;99.90
851;DHT22;412;51.400;7.480;2023-04-03T07:20:50;5.80;99.90
851;DHT22;412;51.400;7.480;2023-04-03T07:23:16;6.00;99.90
851;DHT22;412;51.400;7.480;2023-04-03T07:25:46;5.90;99.90
851;DHT22;412;51.400;7.480;2023-04-03T07:28:13;5.90;99.90
851;DHT22;412;51.400;7.480;2023-04-03T07:30:46;5.90;99.90
851;DHT22;412;51.400;7.480;2023-04-03T07:33:14;6.00;99.90
851;DHT22;412;51.400;7.480;2023-04-03T07:35:40;6.30;99.90
851;DHT22;412;51.400;7.480;2023-04-03T07:38:06;7.10;99.90
851;DHT22;412;51.400;7.480;2023-04-03T07:40:33;8.00;99.90
851;DHT22;412;51.400;7.480;2023-04-03T07:42:58;8.80;99.90
851;DHT22;412;51.400;7.480;2023-04-03T07:45:25;9.40;99.90
851;DHT22;412;51.400;7.480;2023-04-03T07:47:51;9.90;99.90
851;DHT22;412;51.400;7.480;2023-04-03T07:50:17;10.30;99.90
851;DHT22;412;51.400;7.480;2023-04-03T07:52:44;10.70;99.90
851;DHT22;412;51.400;7.480;2023-04-03T07:55:10;11.20;99.60
851;DHT22;412;51.400;7.480;2023-04-03T07:57:35;11.60;99.90
851;DHT22;412;51.400;7.480;2023-04-03T08:00:03;11.80;92.80
851;DHT22;412;51.400;7.480;2023-04-03T08:02:30;12.00;91.70
851;DHT22;412;51.400;7.480;2023-04-03T08:04:58;12.00;89.70
851;DHT22;412;51.400;7.480;2023-04-03T08:07:24;12.10;85.30
851;DHT22;412;51.400;7.480;2023-04-03T08:09:51;11.90;92.50
851;DHT22;412;51.400;7.480;2023-04-03T08:12:17;11.90;91.60
851;DHT22;412;51.400;7.480;2023-04-03T08:14:43;12.20;90.70
851;DHT22;412;51.400;7.480;2023-04-03T08:17:09;12.60;93.30
851;DHT22;412;51.400;7.480;2023-04-03T08:19:38;12.80;89.60
851;DHT22;412;51.400;7.480;2023-04-03T08:22:04;12.90;82.80
851;DHT22;412;51.400;7.480;2023-04-03T08:24:31;13.00;82.60
851;DHT22;412;51.400;7.480;2023-04-03T08:26:57;13.20;90.30
851;DHT22;412;51.400;7.480;2023-04-03T08:29:23;13.20;90.10
851;DHT22;412;51.400;7.480;2023-04-03T08:31:49;13.50;90.20
851;DHT22;412;51.400;7.480;2023-04-03T08:34:16;13.70;89.00
851;DHT22;412;51.400;7.480;2023-04-03T08:36:42;13.70;81.70
851;DHT22;412;51.400;7.480;2023-04-03T08:39:08;13.60;75.60
851;DHT22;412;51.400;7.480;2023-04-03T08:41:36;13.60;76.40
851;DHT22;412;51.400;7.480;2023-04-03T08:49:41;11.70;71.80
851;DHT22;412;51.400;7.480;2023-04-03T08:57:41;10.00;75.60
851;DHT22;412;51.400;7.480;2023-04-03T09:02:53;9.40;80.40
851;DHT22;412;51.400;7.480;2023-04-03T09:08:00;9.10;84.70
851;DHT22;412;51.400;7.480;2023-04-03T09:10:33;8.90;82.80
851;DHT22;412;51.400;7.480;2023-04-03T09:13:49;8.90;91.70
851;DHT22;412;51.400;7.480;2023-04-03T09:15:53;9.00;92.20
851;DHT22;412;51.400;7.480;2023-04-03T09:18:25;9.00;90.70
851;DHT22;412;51.400;7.480;2023-04-03T09:21:05;9.00;90.00
851;DHT22;412;51.400;7.480;2023-04-03T09:23:36;9.10;88.70
851;DHT22;412;51.400;7.480;2023-04-03T09:26:07;9.20;84.80
851;DHT22;412;51.400;7.480;2023-04-03T09:28:38;9.30;87.60
851;DHT22;412;51.400;7.480;2023-04-03T09:33:48;9.60;83.40
851;DHT22;412;51.400;7.480;2023-04-03T09:36:41;9.90;81.40
851;DHT22;412;51.400;7.480;2023-04-03T09:39:16;10.20;83.50
851;DHT22;412;51.400;7.480;2023-04-03T09:41:56;10.50;78.20
851;DHT22;412;51.400;7.480;2023-04-03T09:44:28;10.70;75.60
851;DHT22;412;51.400;7.480;2023-04-03T09:46:54;10.90;73.60
851;DHT22;412;51.400;7.480;2023-04-03T09:49:20;11.10;73.20
851;DHT22;412;51.400;7.480;2023-04-03T09:51:45;11.30;72.30
851;DHT22;412;51.400;7.480;2023-04-03T09:54:44;11.60;73.00
851;DHT22;412;51.400;7.480;2023-04-03T09:57:12;11.70;68.10
851;DHT22;412;51.400;7.480;2023-04-03T09:59:56;11.80;68.30
851;DHT22;412;51.400;7.480;2023-04-03T10:02:39;11.80;71.00
851;DHT22;412;51.400;7.480;2023-04-03T10:10:41;12.20;67.20
851;DHT22;412;51.400;7.480;2023-04-03T10:13:16;12.50;65.90
851;DHT22;412;51.400;7.480;2023-04-03T10:16:08;12.60;59.30
851;DHT22;412;51.400;7.480;2023-04-03T10:18:44;12.50;58.00
851;DHT22;412;51.400;7.480;2023-04-03T10:21:50;12.60;59.60
851;DHT22;412;51.400;7.480;2023-04-03T10:24:23;12.70;59.90
851;DHT22;412;51.400;7.480;2023-04-03T10:26:57;12.90;60.40
851;DHT22;412;51.400;7.480;2023-04-03T10:29:30;13.00;60.40
851;DHT22;412;51.400;7.480;2023-04-03T10:35:20;13.20;57.00
851;DHT22;412;51.400;7.480;2023-04-03T10:47:20;13.70;55.80
851;DHT22;412;51.400;7.480;2023-04-03T10:55:34;13.70;54.50
851;DHT22;412;51.400;7.480;2023-04-03T10:58:03;13.80;52.50
851;DHT22;412;51.400;7.480;2023-04-03T11:00:47;13.80;53.10
851;DHT22;412;51.400;7.480;2023-04-03T11:05:52;13.60;50.10
851;DHT22;412;51.400;7.480;2023-04-03T11:11:09;13.80;51.00
851;DHT22;412;51.400;7.480;2023-04-03T11:16:39;13.80;49.20
851;DHT22;412;51.400;7.480;2023-04-03T11:19:32;13.80;51.80
851;DHT22;412;51.400;7.480;2023-04-03T11:24:39;13.80;53.10
851;DHT22;412;51.400;7.480;2023-04-03T11:27:20;13.90;50.30
851;DHT22;412;51.400;7.480;2023-04-03T11:29:50;13.80;50.60
851;DHT22;412;51.400;7.480;2023-04-03T11:34:48;13.90;50.70
851;DHT22;412;51.400;7.480;2023-04-03T11:40:25;14.10;53.10
851;DHT22;412;51.400;7.480;2023-04-03T11:46:02;14.20;48.80
851;DHT22;412;51.400;7.480;2023-04-03T11:50:55;14.00;49.80
851;DHT22;412;51.400;7.480;2023-04-03T11:54:00;14.00;49.40
851;DHT22;412;51.400;7.480;2023-04-03T12:01:55;13.60;49.90
851;DHT22;412;51.400;7.480;2023-04-03T12:04:27;13.50;48.30
851;DHT22;412;51.400;7.480;2023-04-03T12:06:59;13.80;52.90
851;DHT22;412;51.400;7.480;2023-04-03T12:09:33;13.90;50.80
851;DHT22;412;51.400;7.480;2023-04-03T12:12:01;14.10;51.30
851;DHT22;412;51.400;7.480;2023-04-03T12:14:28;14.20;49.50
851;DHT22;412;51.400;7.480;2023-04-03T12:16:54;14.10;48.00
851;DHT22;412;51.400;7.480;2023-04-03T12:19:33;14.00;49.70
851;DHT22;412;51.400;7.480;2023-04-03T12:27:27;14.30;49.20
851;DHT22;412;51.400;7.480;2023-04-03T12:30:05;14.20;50.00
851;DHT22;412;51.400;7.480;2023-04-03T12:35:03;14.10;52.30
851;DHT22;412;51.400;7.480;2023-04-03T12:40:38;14.20;51.00
851;DHT22;412;51.400;7.480;2023-04-03T12:48:18;14.00;51.30
851;DHT22;412;51.400;7.480;2023-04-03T12:50:49;13.90;49.60
851;DHT22;412;51.400;7.480;2023-04-03T12:53:19;14.00;50.40
851;DHT22;412;51.400;7.480;2023-04-03T12:55:53;14.10;50.90
851;DHT22;412;51.400;7.480;2023-04-03T12:58:24;14.20;50.50
851;DHT22;412;51.400;7.480;2023-04-03T13:01:00;14.30;50.70
851;DHT22;412;51.400;7.480;2023-04-03T13:03:28;14.30;52.10
851;DHT22;412;51.400;7.480;2023-04-03T13:06:00;14.10;49.60
851;DHT22;412;51.400;7.480;2023-04-03T13:08:27;14.10;51.20
851;DHT22;412;51.400;7.480;2023-04-03T13:10:57;14.10;49.20
851;DHT22;412;51.400;7.480;2023-04-03T13:13:23;14.00;51.40
851;DHT22;412;51.400;7.480;2023-04-03T13:15:50;14.00;50.40
851;DHT22;412;51.400;7.480;2023-04-03T13:18:31;13.60;48.00
851;DHT22;412;51.400;7.480;2023-04-03T13:21:23;13.30;52.00
851;DHT22;412;51.400;7.480;2023-04-03T13:23:54;13.20;51.50
851;DHT22;412;51.400;7.480;2023-04-03T13:26:22;13.20;54.00
851;DHT22;412;51.400;7.480;2023-04-03T13:28:49;13.10;52.20
851;DHT22;412;51.400;7.480;2023-04-03T13:34:11;13.20;53.70
851;DHT22;412;51.400;7.480;2023-04-03T13:36:54;13.30;53.70
851;DHT22;412;51.400;7.480;2023-04-03T13:39:28;12.70;50.60
851;DHT22;412;51.400;7.480;2023-04-03T13:41:57;12.80;52.90
851;DHT22;412;51.400;7.480;2023-04-03T13:46:59;13.10;56.10
851;DHT22;412;51.400;7.480;2023-04-03T13:49:32;13.10;54.20
851;DHT22;412;51.400;7.480;2023-04-03T13:51:59;13.10;53.90
851;DHT22;412;51.400;7.480;2023-04-03T13:54:32;13.10;53.90
851;DHT22;412;51.400;7.480;2023-04-03T13:57:00;13.00;53.70
851;DHT22;412;51.400;7.480;2023-04-03T13:59:30;12.90;53.50
851;DHT22;412;51.400;7.480;2023-04-03T14:04:43;12.90;54.50
851;DHT22;412;51.400;7.480;2023-04-03T14:07:11;13.00;55.00
851;DHT22;412;51.400;7.480;2023-04-03T14:09:37;12.70;52.80
851;DHT22;412;51.400;7.480;2023-04-03T14:12:08;12.80;53.80
851;DHT22;412;51.400;7.480;2023-04-03T14:14:35;12.90;54.90
851;DHT22;412;51.400;7.480;2023-04-03T14:17:05;12.90;53.20
851;DHT22;412;51.400;7.480;2023-04-03T14:19:38;12.90;54.50
851;DHT22;412;51.400;7.480;2023-04-03T14:24:41;13.10;55.50
851;DHT22;412;51.400;7.480;2023-04-03T14:27:25;13.10;53.30
851;DHT22;412;51.400;7.480;2023-04-03T14:29:54;13.20;56.00
851;DHT22;412;51.400;7.480;2023-04-03T14:32:21;13.20;54.50
851;DHT22;412;51.400;7.480;2023-04-03T14:34:47;13.20;54.50
851;DHT22;412;51.400;7.480;2023-04-03T14:37:18;13.10;52.50
851;DHT22;412;51.400;7.480;2023-04-03T14:39:45;13.00;54.00
851;DHT22;412;51.400;7.480;2023-04-03T14:42:19;13.00;54.80
851;DHT22;412;51.400;7.480;2023-04-03T14:44:45;12.90;55.50
851;DHT22;412;51.400;7.480;2023-04-03T14:47:13;12.40;54.40
851;DHT22;412;51.400;7.480;2023-04-03T14:49:40;12.50;53.80
851;DHT22;412;51.400;7.480;2023-04-03T14:52:09;12.50;53.90
851;DHT22;412;51.400;7.480;2023-04-03T14:54:41;12.50;53.00
851;DHT22;412;51.400;7.480;2023-04-03T14:57:11;12.50;53.50
851;DHT22;412;51.400;7.480;2023-04-03T14:59:38;12.50;52.10
851;DHT22;412;51.400;7.480;2023-04-03T15:02:20;12.60;53.50
851;DHT22;412;51.400;7.480;2023-04-03T15:04:50;12.70;55.70
851;DHT22;412;51.400;7.480;2023-04-03T15:07:16;12.50;53.70
851;DHT22;412;51.400;7.480;2023-04-03T15:09:42;12.50;53.50
851;DHT22;412;51.400;7.480;2023-04-03T15:12:08;12.50;54.90
851;DHT22;412;51.400;7.480;2023-04-03T15:14:34;12.50;56.00
851;DHT22;412;51.400;7.480;2023-04-03T15:17:00;12.30;55.30
851;DHT22;412;51.400;7.480;2023-04-03T15:19:26;12.20;53.90
851;DHT22;412;51.400;7.480;2023-04-03T15:21:51;12.20;53.90
851;DHT22;412;51.400;7.480;2023-04-03T15:24:17;12.00;54.70
851;DHT22;412;51.400;7.480;2023-04-03T15:26:43;12.10;55.90
851;DHT22;412;51.400;7.480;2023-04-03T15:29:09;12.20;55.70
851;DHT22;412;51.400;7.480;2023-04-03T15:31:34;12.00;54.00
851;DHT22;412;51.400;7.480;2023-04-03T15:34:00;11.80;53.30
851;DHT22;412;51.400;7.480;2023-04-03T15:36:26;11.60;53.50
851;DHT22;412;51.400;7.480;2023-04-03T15:38:52;11.60;54.40
851;DHT22;412;51.400;7.480;2023-04-03T15:41:17;11.70;55.80
851;DHT22;412;51.400;7.480;2023-04-03T15:43:43;11.60;56.10
851;DHT22;412;51.400;7.480;2023-04-03T15:46:09;11.60;55.50
851;DHT22;412;51.400;7.480;2023-04-03T15:48:36;11.60;54.20
851;DHT22;412;51.400;7.480;2023-04-03T15:51:02;11.70;55.30
851;DHT22;412;51.400;7.480;2023-04-03T15:53:27;11.60;55.00
851;DHT22;412;51.400;7.480;2023-04-03T15:55:53;11.40;55.40
851;DHT22;412;51.400;7.480;2023-04-03T15:58:19;11.30;55.00
851;DHT22;412;51.400;7.480;2023-04-03T16:00:45;11.30;55.00
851;DHT22;412;51.400;7.480;2023-04-03T16:03:12;11.20;54.40
851;DHT22;412;51.400;7.480;2023-04-03T16:05:40;11.20;54.60
851;DHT22;412;51.400;7.480;2023-04-03T16:08:06;11.30;56.40
851;DHT22;412;51.400;7.480;2023-04-03T16:10:34;11.30;55.80
851;DHT22;412;51.400;7.480;2023-04-03T16:13:00;11.40;56.00
851;DHT22;412;51.400;7.480;2023-04-03T16:15:26;11.30;55.60
851;DHT22;412;51.400;7.480;2023-04-03T16:17:53;11.20;55.50
851;DHT22;412;51.400;7.480;2023-04-03T16:20:19;11.20;56.90
851;DHT22;412;51.400;7.480;2023-04-03T16:22:47;11.10;56.00
851;DHT22;412;51.400;7.480;2023-04-03T16:25:13;11.10;56.30
851;DHT22;412;51.400;7.480;2023-04-03T16:27:39;11.20;55.60
851;DHT22;412;51.400;7.480;2023-04-03T16:30:06;11.10;54.70
851;DHT22;412;51.400;7.480;2023-04-03T16:32:32;10.90;55.00
851;DHT22;412;51.400;7.480;2023-04-03T16:34:59;10.70;54.90
851;DHT22;412;51.400;7.480;2023-04-03T16:37:25;10.70;55.70
851;DHT22;412;51.400;7.480;2023-04-03T16:39:51;10.60;55.20
851;DHT22;412;51.400;7.480;2023-04-03T16:42:17;10.50;57.30
851;DHT22;412;51.400;7.480;2023-04-03T16:44:43;10.50;61.60
851;DHT22;412;51.400;7.480;2023-04-03T16:47:09;10.50;57.60
851;DHT22;412;51.400;7.480;2023-04-03T16:49:35;10.50;56.70
851;DHT22;412;51.400;7.480;2023-04-03T16:52:02;10.60;58.00
851;DHT22;412;51.400;7.480;2023-04-03T16:54:29;10.50;56.30
851;DHT22;412;51.400;7.480;2023-04-03T16:56:54;10.50;56.50
851;DHT22;412;51.400;7.480;2023-04-03T16:59:20;10.40;56.20
851;DHT22;412;51.400;7.480;2023-04-03T17:01:46;10.40;56.30
851;DHT22;412;51.400;7.480;2023-04-03T17:04:12;10.30;56.10
851;DHT22;412;51.400;7.480;2023-04-03T17:06:38;10.40;56.40
851;DHT22;412;51.400;7.480;2023-04-03T17:09:05;10.30;55.10
851;DHT22;412;51.400;7.480;2023-04-03T17:11:31;10.20;56.00
851;DHT22;412;51.400;7.480;2023-04-03T17:13:57;10.20;55.30
851;DHT22;412;51.400;7.480;2023-04-03T17:16:23;10.10;54.90
851;DHT22;412;51.400;7.480;2023-04-03T17:18:50;10.10;56.10
851;DHT22;412;51.400;7.480;2023-04-03T17:21:16;10.10;57.00
851;DHT22;412;51.400;7.480;2023-04-03T17:23:44;10.10;57.90
851;DHT22;412;51.400;7.480;2023-04-03T17:26:11;10.10;56.40
851;DHT22;412;51.400;7.480;2023-04-03T17:28:37;10.00;56.10
851;DHT22;412;51.400;7.480;2023-04-03T17:31:05;10.00;56.60
851;DHT22;412;51.400;7.480;2023-04-03T17:33:31;10.00;57.10
851;DHT22;412;51.400;7.480;2023-04-03T17:35:58;10.00;58.10
851;DHT22;412;51.400;7.480;2023-04-03T17:38:24;9.90;58.00
851;DHT22;412;51.400;7.480;2023-04-03T17:40:50;10.00;57.30
851;DHT22;412;51.400;7.480;2023-04-03T17:43:15;9.90;58.50
851;DHT22;412;51.400;7.480;2023-04-03T17:45:41;10.00;57.30
851;DHT22;412;51.400;7.480;2023-04-03T17:48:07;10.00;57.60
851;DHT22;412;51.400;7.480;2023-04-03T17:50:33;9.90;58.00
851;DHT22;412;51.400;7.480;2023-04-03T17:52:58;9.90;57.80
851;DHT22;412;51.400;7.480;2023-04-03T17:55:24;9.80;57.80
851;DHT22;412;51.400;7.480;2023-04-03T17:57:50;9.70;57.90
851;DHT22;412;51.400;7.480;2023-04-03T18:00:16;9.60;57.80
851;DHT22;412;51.400;7.480;2023-04-03T18:02:42;9.70;57.80
851;DHT22;412;51.400;7.480;2023-04-03T18:05:11;9.50;57.00
851;DHT22;412;51.400;7.480;2023-04-03T18:07:38;9.50;57.50
851;DHT22;412;51.400;7.480;2023-04-03T18:10:06;9.40;58.10
851;DHT22;412;51.400;7.480;2023-04-03T18:12:34;9.60;58.60
851;DHT22;412;51.400;7.480;2023-04-03T18:15:02;9.60;57.70
851;DHT22;412;51.400;7.480;2023-04-03T18:17:28;9.50;58.10
851;DHT22;412;51.400;7.480;2023-04-03T18:19:55;9.60;58.40
851;DHT22;412;51.400;7.480;2023-04-03T18:22:22;9.60;58.90
851;DHT22;412;51.400;7.480;2023-04-03T18:24:50;9.60;58.30
851;DHT22;412;51.400;7.480;2023-04-03T18:27:19;9.60;58.10
851;DHT22;412;51.400;7.480;2023-04-03T18:29:48;9.60;58.20
851;DHT22;412;51.400;7.480;2023-04-03T18:32:17;9.50;58.40